Time;durP1;ratioP1;P1;durP2;ratioP2;P2;SDS_P1;SDS_P2;PMS_P1;PMS_P2;Temp;Humidity;BMP_temperature;BMP_pressure;BME280_temperature;BME280_humidity;BME280_pressure;Samples;Min_cycle;Max_cycle;Signal;HPM_P1;HPM_P2
2023/09/14 00:01:00;;;;;;;;;7.67;6.00;;;;;-143.90;99.45;74217.19;4917941;28;102251;-72
2023/09/14 00:03:27;;;;;;;;;4.67;4.67;;;;;-143.90;98.77;74221.31;4899156;28;103158;-73
2023/09/14 00:05:54;;;;;;;;;6.00;6.00;;;;;-143.90;98.58;74221.31;4918998;28;102302;-74
2023/09/14 00:08:21;;;;;;;;;7.00;6.67;;;;;-143.90;98.52;74233.72;4917008;28;105495;-73
2023/09/14 00:10:56;;;;;;;;;6.00;6.00;;;;;-143.90;98.82;74229.59;4888151;28;102244;-73
2023/09/14 00:13:23;;;;;;;;;2.00;2.00;;;;;-143.90;98.72;74233.72;4905656;28;102416;-73
2023/09/14 00:15:50;;;;;;;;;3.00;3.00;;;;;-143.90;98.46;74239.94;4893166;28;102454;-73
2023/09/14 00:18:19;;;;;;;;;4.00;4.00;;;;;-143.90;97.72;74248.19;4884913;28;105739;-73
2023/09/14 00:20:46;;;;;;;;;4.33;3.33;;;;;-143.90;97.75;74244.06;4897602;28;103881;-73
2023/09/14 00:23:13;;;;;;;;;7.00;6.00;;;;;-143.90;97.68;74258.53;4894991;28;103636;-73
2023/09/14 00:25:39;;;;;;;;;7.00;7.00;;;;;-143.90;97.35;74275.06;4891338;28;102365;-74
2023/09/14 00:28:06;;;;;;;;;3.00;3.00;;;;;-143.90;98.25;74299.88;4893083;28;105553;-74
2023/09/14 00:30:33;;;;;;;;;3.00;3.00;;;;;-143.90;98.11;74299.88;4903587;28;102528;-74
2023/09/14 00:33:00;;;;;;;;;2.33;2.33;;;;;-143.90;97.79;74297.81;4908748;28;102473;-74
2023/09/14 00:35:26;;;;;;;;;3.00;3.00;;;;;-143.90;97.86;74297.81;4890359;28;103078;-74
2023/09/14 00:37:53;;;;;;;;;3.00;1.00;;;;;-143.90;97.33;74295.75;4906777;28;104328;-73
2023/09/14 00:40:20;;;;;;;;;2.00;2.00;;;;;-143.90;96.80;74289.53;4910673;28;102210;-74
2023/09/14 00:42:49;;;;;;;;;1.00;1.00;;;;;-143.90;97.05;74287.47;4903568;28;102317;-73
2023/09/14 00:45:20;;;;;;;;;1.00;1.00;;;;;-143.90;97.97;74295.75;4905665;28;102468;-73
2023/09/14 00:47:52;;;;;;;;;2.00;1.67;;;;;-143.90;98.80;74299.88;4904665;28;104123;-72
2023/09/14 00:50:21;;;;;;;;;2.00;1.00;;;;;-143.90;99.39;74304.00;4891986;28;102404;-73
2023/09/14 00:52:55;;;;;;;;;3.00;2.00;;;;;-143.90;99.95;74314.34;4922895;28;102427;-73
2023/09/14 00:55:23;;;;;;;;;3.00;3.00;;;;;-143.90;99.23;74322.59;4908493;28;102265;-73
2023/09/14 00:57:51;;;;;;;;;2.00;2.00;;;;;-143.90;99.33;74324.69;4903783;28;108734;-73
2023/09/14 01:00:18;;;;;;;;;1.33;1.33;;;;;-143.90;100.00;74316.41;4903187;28;103373;-73
2023/09/14 01:02:45;;;;;;;;;1.00;1.00;;;;;-143.90;99.69;74324.69;4906808;28;102001;-73
2023/09/14 01:05:15;;;;;;;;;1.00;1.00;;;;;-143.90;99.91;74322.59;4891512;28;102452;-73
2023/09/14 01:07:42;;;;;;;;;1.00;1.00;;;;;-143.90;99.62;74312.28;4901140;28;104223;-73
2023/09/14 01:10:15;;;;;;;;;2.00;2.00;;;;;-143.90;98.28;74312.28;4905316;28;102339;-73
2023/09/14 01:12:43;;;;;;;;;0.67;0.67;;;;;-143.90;99.46;74328.81;4893039;28;103683;-73
2023/09/14 01:15:26;;;;;;;;;2.67;1.67;;;;;-143.90;99.93;74324.69;4907689;28;103191;-73
2023/09/14 01:18:22;;;;;;;;;0.67;0.67;;;;;-143.90;100.00;74314.34;4901258;28;108926;-73
2023/09/14 01:21:04;;;;;;;;;0.00;0.00;;;;;-143.90;100.00;74308.13;4896387;28;103174;-73
2023/09/14 01:23:41;;;;;;;;;0.33;0.33;;;;;-143.90;99.95;74308.13;4923081;28;102625;-73
2023/09/14 01:26:09;;;;;;;;;0.00;0.00;;;;;-143.90;99.63;74304.00;4930611;28;103517;-73
2023/09/14 01:28:36;;;;;;;;;1.00;1.00;;;;;-143.90;99.37;74306.06;4929574;28;104245;-73
2023/09/14 01:31:03;;;;;;;;;0.33;0.33;;;;;-143.90;99.20;74301.94;4930233;28;102094;-73
2023/09/14 01:33:31;;;;;;;;;1.00;0.33;;;;;-143.90;99.27;74299.88;4929316;28;106251;-74
2023/09/14 01:36:13;;;;;;;;;0.33;0.33;;;;;-143.90;98.82;74299.88;4941383;28;102484;-73
2023/09/14 01:38:41;;;;;;;;;0.00;0.00;;;;;-143.90;99.32;74301.94;4932244;28;105168;-73
2023/09/14 01:41:09;;;;;;;;;1.00;0.00;;;;;-143.90;99.54;74308.13;4931477;28;103439;-74
2023/09/14 01:43:36;;;;;;;;;1.67;1.00;;;;;-143.90;99.58;74301.94;4923973;28;102304;-73
2023/09/14 01:46:04;;;;;;;;;1.00;1.00;;;;;-143.90;99.36;74299.88;4926942;28;102848;-74
2023/09/14 01:48:30;;;;;;;;;1.00;1.00;;;;;-143.90;99.49;74299.88;4925179;28;104134;-74
2023/09/14 01:50:57;;;;;;;;;1.33;1.00;;;;;-143.90;99.47;74304.00;4928342;28;102180;-74
2023/09/14 01:53:24;;;;;;;;;2.00;1.00;;;;;-143.90;99.18;74306.06;4932004;28;102143;-73
2023/09/14 01:55:50;;;;;;;;;0.00;0.00;;;;;-143.90;98.88;74304.00;4934334;28;102262;-73
2023/09/14 01:58:17;;;;;;;;;1.33;1.00;;;;;-143.90;98.67;74306.06;4931304;28;104106;-73
2023/09/14 02:00:44;;;;;;;;;2.00;1.67;;;;;-143.90;99.19;74304.00;4921497;28;102277;-73
2023/09/14 02:03:10;;;;;;;;;2.00;2.00;;;;;-143.90;98.49;74314.34;4927624;28;102035;-73
2023/09/14 02:05:37;;;;;;;;;1.00;1.00;;;;;-143.90;98.47;74316.41;4931137;28;102007;-73
2023/09/14 02:08:04;;;;;;;;;1.00;1.00;;;;;-143.90;98.37;74308.13;4929567;28;104220;-73
2023/09/14 02:10:30;;;;;;;;;1.67;1.67;;;;;-143.90;99.10;74328.81;4927637;28;102296;-73
2023/09/14 02:12:57;;;;;;;;;3.67;1.00;;;;;-143.90;98.91;74324.69;4927162;28;102402;-73
2023/09/14 02:15:24;;;;;;;;;1.00;1.00;;;;;-143.90;98.83;74324.69;4932973;28;102269;-73
2023/09/14 02:17:51;;;;;;;;;0.00;0.00;;;;;-143.90;98.25;74328.81;4928872;28;112249;-73
2023/09/14 02:20:18;;;;;;;;;0.00;0.00;;;;;-143.90;97.69;74324.69;4936697;28;101961;-73
2023/09/14 02:22:44;;;;;;;;;1.00;1.00;;;;;-143.90;97.71;74328.81;4927596;28;102341;-72
2023/09/14 02:25:11;;;;;;;;;0.00;0.00;;;;;-143.90;97.59;74314.34;4930068;28;102007;-73
2023/09/14 02:27:38;;;;;;;;;0.00;0.00;;;;;-143.90;97.65;74322.59;4928216;28;104522;-73
2023/09/14 02:30:06;;;;;;;;;0.00;0.00;;;;;-143.90;98.43;74322.59;4916347;28;105409;-73
2023/09/14 02:32:33;;;;;;;;;0.00;0.00;;;;;-143.90;98.02;74326.75;4927874;28;102804;-73
2023/09/14 02:35:00;;;;;;;;;0.00;0.00;;;;;-143.90;97.83;74335.00;4927097;28;102248;-73
2023/09/14 02:37:26;;;;;;;;;0.00;0.00;;;;;-143.90;98.01;74337.06;4919726;28;104032;-73
2023/09/14 02:39:53;;;;;;;;;0.00;0.00;;;;;-143.90;98.02;74332.94;4930666;28;102744;-73
2023/09/14 02:42:19;;;;;;;;;1.00;0.00;;;;;-143.90;97.90;74332.94;4923305;28;104457;-72
2023/09/14 02:44:47;;;;;;;;;0.00;0.00;;;;;-143.90;98.03;74335.00;4929785;28;102421;-73
2023/09/14 02:47:13;;;;;;;;;0.00;0.00;;;;;-143.90;97.99;74335.00;4927922;28;104011;-72
2023/09/14 02:49:41;;;;;;;;;0.00;0.00;;;;;-143.90;98.04;74343.28;4923325;28;102418;-73
2023/09/14 02:52:07;;;;;;;;;0.00;0.00;;;;;-143.90;98.30;74347.41;4924703;28;103375;-72
2023/09/14 02:54:34;;;;;;;;;0.00;0.00;;;;;-143.90;97.96;74345.34;4923827;28;103529;-74
2023/09/14 02:57:02;;;;;;;;;0.00;0.00;;;;;-143.90;97.59;74353.63;4917172;28;104257;-74
2023/09/14 02:59:29;;;;;;;;;0.00;0.00;;;;;-143.90;97.71;74345.34;4931014;28;102019;-72
2023/09/14 03:01:55;;;;;;;;;0.00;0.00;;;;;-143.90;98.13;74341.22;4930826;28;102136;-72
2023/09/14 03:04:22;;;;;;;;;0.00;0.00;;;;;-143.90;97.85;74345.34;4932606;28;102359;-72
2023/09/14 03:06:49;;;;;;;;;0.00;0.00;;;;;-143.90;97.74;74345.34;4927500;28;103276;-73
2023/09/14 03:09:16;;;;;;;;;0.00;0.00;;;;;-143.90;97.74;74349.47;4938449;28;102251;-73
2023/09/14 03:11:43;;;;;;;;;0.00;0.00;;;;;-143.90;97.74;74353.63;4927767;28;102117;-73
2023/09/14 03:14:10;;;;;;;;;0.33;0.33;;;;;-143.90;97.62;74345.34;4946842;28;103312;-73
2023/09/14 03:16:37;;;;;;;;;0.67;0.00;;;;;-143.90;98.16;74357.75;4930514;28;103633;-73
2023/09/14 03:19:04;;;;;;;;;0.00;0.00;;;;;-143.90;97.55;74349.47;4919836;28;102226;-72
2023/09/14 03:21:31;;;;;;;;;0.00;0.00;;;;;-143.90;97.95;74347.41;4926193;28;102311;-72
2023/09/14 03:23:57;;;;;;;;;0.00;0.00;;;;;-143.90;97.49;74353.63;4926553;28;102299;-73
2023/09/14 03:26:27;;;;;;;;;0.00;0.00;;;;;-143.90;97.76;74355.69;4921486;28;103430;-73
2023/09/14 03:28:54;;;;;;;;;0.00;0.00;;;;;-143.90;97.91;74353.63;4915370;28;101974;-72
2023/09/14 03:31:21;;;;;;;;;0.33;0.33;;;;;-143.90;97.83;74349.47;4925284;28;103047;-72
2023/09/14 03:33:54;;;;;;;;;1.00;0.00;;;;;-143.90;97.88;74351.53;4923530;28;102231;-72
2023/09/14 03:36:21;;;;;;;;;0.67;0.67;;;;;-143.90;97.15;74345.34;4914640;28;111503;-72
2023/09/14 03:38:48;;;;;;;;;0.00;0.00;;;;;-143.90;97.54;74349.47;4920596;28;102347;-73
2023/09/14 03:41:15;;;;;;;;;0.00;0.00;;;;;-143.90;97.78;74345.34;4920135;28;102432;-72
2023/09/14 03:43:42;;;;;;;;;1.00;1.00;;;;;-143.90;98.32;74353.63;4919019;28;102310;-72
2023/09/14 03:46:13;;;;;;;;;0.00;0.00;;;;;-143.90;98.42;74355.69;4907524;28;103916;-72
2023/09/14 03:48:41;;;;;;;;;0.00;0.00;;;;;-143.90;98.36;74357.75;4917410;28;102563;-73
2023/09/14 03:51:07;;;;;;;;;1.00;1.00;;;;;-143.90;98.23;74355.69;4901505;28;103553;-73
2023/09/14 03:53:35;;;;;;;;;1.00;1.00;;;;;-143.90;98.21;74357.75;4902707;28;103598;-73
2023/09/14 03:56:03;;;;;;;;;0.00;0.00;;;;;-143.90;98.46;74357.75;4913557;28;104123;-73
2023/09/14 03:58:31;;;;;;;;;1.00;1.00;;;;;-143.90;98.11;74359.81;4912329;28;102270;-73
2023/09/14 04:00:59;;;;;;;;;1.00;1.00;;;;;-143.90;98.16;74363.94;4916627;28;102122;-73
2023/09/14 04:03:26;;;;;;;;;0.00;0.00;;;;;-143.90;98.49;74366.00;4927989;28;102413;-74
2023/09/14 04:05:53;;;;;;;;;0.00;0.00;;;;;-143.90;98.23;74363.94;4914081;28;105257;-74
2023/09/14 04:08:21;;;;;;;;;0.00;0.00;;;;;-143.90;98.37;74361.88;4904542;28;102025;-74
2023/09/14 04:10:50;;;;;;;;;0.00;0.00;;;;;-143.90;98.34;74363.94;4916159;28;102366;-73
2023/09/14 04:13:23;;;;;;;;;1.33;0.67;;;;;-143.90;98.30;74357.75;4912059;28;102067;-73
2023/09/14 04:15:50;;;;;;;;;1.33;1.00;;;;;-143.90;98.53;74366.00;4900501;28;104125;-75
2023/09/14 04:18:17;;;;;;;;;2.00;2.00;;;;;-143.90;98.61;74361.88;4894146;28;102253;-73
2023/09/14 04:20:47;;;;;;;;;2.00;2.00;;;;;-143.90;98.82;74363.94;4920477;28;103950;-73
2023/09/14 04:23:14;;;;;;;;;1.00;1.00;;;;;-143.90;98.66;74359.81;4905074;28;102572;-74
2023/09/14 04:25:47;;;;;;;;;1.33;1.00;;;;;-143.90;98.45;74374.28;4924167;28;104092;-73
2023/09/14 04:28:15;;;;;;;;;1.00;1.00;;;;;-143.90;98.55;74361.88;4920996;28;103820;-73
2023/09/14 04:30:47;;;;;;;;;2.67;2.00;;;;;-143.90;98.54;74370.16;4896437;28;102817;-73
2023/09/14 04:33:15;;;;;;;;;1.00;1.00;;;;;-143.90;99.18;74370.16;4912484;28;102047;-73
2023/09/14 04:35:42;;;;;;;;;3.00;2.00;;;;;-143.90;98.50;74366.00;4916309;28;103406;-73
2023/09/14 04:38:09;;;;;;;;;4.00;4.00;;;;;-143.90;99.09;74366.00;4898405;28;102025;-72
2023/09/14 04:40:43;;;;;;;;;2.00;2.00;;;;;-143.90;98.80;74370.16;4898560;28;102205;-72
2023/09/14 04:43:10;;;;;;;;;3.00;3.00;;;;;-143.90;98.58;74368.09;4895536;28;103118;-72
2023/09/14 04:45:37;;;;;;;;;2.00;2.00;;;;;-143.90;98.58;74370.16;4913702;28;104114;-72
2023/09/14 04:48:05;;;;;;;;;2.33;2.33;;;;;-143.90;98.39;74374.28;4903298;28;102094;-72
2023/09/14 04:50:33;;;;;;;;;4.00;4.00;;;;;-143.90;99.01;74374.28;4924646;28;104470;-72
2023/09/14 04:52:59;;;;;;;;;3.00;3.00;;;;;-143.90;98.86;74372.22;4924751;28;103277;-73
2023/09/14 04:55:26;;;;;;;;;4.00;4.00;;;;;-143.90;98.64;74374.28;4923410;28;104071;-72
2023/09/14 04:57:53;;;;;;;;;5.33;5.00;;;;;-143.90;99.04;74376.34;4930271;28;102138;-72
2023/09/14 05:00:19;;;;;;;;;3.00;3.00;;;;;-143.90;98.74;74376.34;4915415;28;102348;-73
2023/09/14 05:02:46;;;;;;;;;3.00;3.00;;;;;-143.90;98.92;74384.63;4923194;28;102538;-73
2023/09/14 05:05:13;;;;;;;;;4.33;4.00;;;;;-143.90;99.04;74382.56;4909458;28;103551;-73
2023/09/14 05:07:42;;;;;;;;;3.00;2.00;;;;;-143.90;98.41;74378.41;4927214;28;103186;-73
2023/09/14 05:10:10;;;;;;;;;3.00;2.67;;;;;-143.90;98.51;74374.28;4911151;28;103040;-73
2023/09/14 05:12:37;;;;;;;;;5.00;4.00;;;;;-143.90;98.86;74376.34;4922636;28;102109;-73
2023/09/14 05:15:04;;;;;;;;;2.33;2.33;;;;;-143.90;98.15;74386.69;4922646;28;104202;-73
2023/09/14 05:17:31;;;;;;;;;4.00;4.00;;;;;-143.90;98.09;74399.09;4925808;28;102444;-73
2023/09/14 05:19:57;;;;;;;;;2.67;2.67;;;;;-143.90;98.51;74390.81;4921556;28;101994;-72
2023/09/14 05:22:25;;;;;;;;;5.00;5.00;;;;;-143.90;98.30;74401.16;4930433;28;103723;-73
2023/09/14 05:24:53;;;;;;;;;4.00;3.00;;;;;-143.90;97.91;74403.22;4928095;28;110345;-74
2023/09/14 05:27:20;;;;;;;;;3.33;3.00;;;;;-143.90;97.87;74403.22;4927967;28;102405;-74
2023/09/14 05:29:47;;;;;;;;;5.00;5.00;;;;;-143.90;97.76;74415.63;4930482;28;102510;-73
2023/09/14 05:32:13;;;;;;;;;7.67;6.33;;;;;-143.90;97.36;74436.28;4918646;28;102299;-73
2023/09/14 05:34:40;;;;;;;;;6.33;5.33;;;;;-143.90;97.15;74434.22;4930967;28;104323;-71
2023/09/14 05:37:07;;;;;;;;;11.00;10.00;;;;;-143.90;97.04;74450.75;4930558;28;102129;-73
2023/09/14 05:39:34;;;;;;;;;6.00;5.33;;;;;-143.90;96.86;74454.91;4933613;28;105501;-73
2023/09/14 05:42:01;;;;;;;;;3.67;3.67;;;;;-143.90;97.03;74465.22;4934747;28;102448;-72
2023/09/14 05:44:27;;;;;;;;;8.00;7.00;;;;;-143.90;96.68;74469.38;4927618;28;104281;-73
2023/09/14 05:46:54;;;;;;;;;4.00;4.00;;;;;-143.90;97.05;74471.44;4936758;28;102212;-73
2023/09/14 05:49:20;;;;;;;;;5.33;5.00;;;;;-143.90;96.76;74473.50;4920606;28;102183;-73
2023/09/14 05:51:47;;;;;;;;;6.67;6.67;;;;;-143.90;95.79;74485.91;4928687;28;101976;-73
2023/09/14 05:54:14;;;;;;;;;4.00;4.00;;;;;-143.90;95.82;74494.16;4930203;28;105021;-73
2023/09/14 05:56:40;;;;;;;;;7.67;5.67;;;;;-143.90;95.29;74502.44;4935568;28;102112;-73
2023/09/14 05:59:07;;;;;;;;;4.67;4.67;;;;;-143.90;96.29;74510.72;4931166;28;102869;-72
2023/09/14 06:01:51;;;;;;;;;5.00;4.00;;;;;-143.90;95.99;74516.91;4934438;28;102481;-72
2023/09/14 06:04:18;;;;;;;;;5.00;5.00;;;;;-143.90;95.70;74516.91;4931458;28;105492;-73
2023/09/14 06:06:45;;;;;;;;;5.00;4.00;;;;;-143.90;95.88;74518.97;4918011;28;102191;-72
2023/09/14 06:09:11;;;;;;;;;7.33;7.00;;;;;-143.90;95.26;74523.09;4934977;28;101936;-73
2023/09/14 06:11:40;;;;;;;;;4.67;4.00;;;;;-143.90;95.84;74531.38;4930026;28;102173;-73
2023/09/14 06:14:07;;;;;;;;;2.67;2.67;;;;;-143.90;95.70;74531.38;4930376;28;104263;-73
2023/09/14 06:16:33;;;;;;;;;3.33;3.00;;;;;-143.90;95.46;74531.38;4934472;28;102438;-73
2023/09/14 06:19:00;;;;;;;;;6.33;6.33;;;;;-143.90;95.00;74537.56;4935951;28;102416;-72
2023/09/14 06:21:27;;;;;;;;;3.33;3.33;;;;;-143.90;94.59;74539.66;4935535;28;102142;-73
2023/09/14 06:23:54;;;;;;;;;4.00;4.00;;;;;-143.90;94.92;74543.78;4950255;28;103136;-73
2023/09/14 06:26:20;;;;;;;;;2.00;2.00;;;;;-143.90;95.28;74537.56;4933696;28;101954;-73
2023/09/14 06:28:47;;;;;;;;;2.33;2.33;;;;;-143.90;95.75;74552.03;4936625;28;102246;-72
2023/09/14 06:31:13;;;;;;;;;5.00;5.00;;;;;-143.90;95.52;74562.38;4934065;28;102411;-72
2023/09/14 06:33:40;;;;;;;;;4.00;3.33;;;;;-143.90;95.85;74558.25;4934616;28;103995;-72
2023/09/14 06:36:07;;;;;;;;;4.00;4.00;;;;;-143.90;95.39;74549.97;4932954;28;102137;-73
2023/09/14 06:38:33;;;;;;;;;4.00;4.00;;;;;-143.90;95.38;74547.91;4919888;28;102074;-73
2023/09/14 06:41:00;;;;;;;;;4.00;3.33;;;;;-143.90;95.10;74545.84;4929768;28;102338;-73
2023/09/14 06:43:27;;;;;;;;;3.00;3.00;;;;;-143.90;95.26;74533.44;4934000;28;104141;-73
2023/09/14 06:45:53;;;;;;;;;3.00;2.67;;;;;-143.90;95.15;74535.50;4934729;28;102154;-73
2023/09/14 06:48:20;;;;;;;;;1.00;1.00;;;;;-143.90;94.66;74533.44;4931835;28;102854;-73
2023/09/14 06:50:47;;;;;;;;;2.00;2.00;;;;;-143.90;94.50;74531.38;4926481;28;102588;-73
2023/09/14 06:53:13;;;;;;;;;4.00;3.00;;;;;-143.90;94.31;74523.09;4915663;28;104172;-73
2023/09/14 06:55:40;;;;;;;;;2.00;2.00;;;;;-143.90;94.50;74525.19;4916810;28;104474;-73
2023/09/14 06:58:08;;;;;;;;;2.00;2.00;;;;;-143.90;94.74;74514.84;4923051;28;102375;-72
2023/09/14 07:00:35;;;;;;;;;2.33;2.33;;;;;-143.90;94.71;74506.56;4939908;28;102465;-72
2023/09/14 07:03:03;;;;;;;;;4.33;4.33;;;;;-143.90;94.06;74506.56;4934774;28;104022;-72
2023/09/14 07:05:30;;;;;;;;;3.00;2.33;;;;;-143.90;94.79;74502.44;4940030;28;101965;-72
2023/09/14 07:07:57;;;;;;;;;2.33;2.00;;;;;-143.90;94.90;74492.09;4934605;28;102038;-72
2023/09/14 07:10:24;;;;;;;;;5.00;5.00;;;;;-143.90;94.65;74502.44;4934748;28;102273;-71
2023/09/14 07:12:51;;;;;;;;;7.67;5.33;;;;;-143.90;93.24;74502.44;4950508;28;104077;-73
2023/09/14 07:15:18;;;;;;;;;3.33;3.33;;;;;-143.90;93.06;74502.44;4935893;28;102366;-73
2023/09/14 07:17:45;;;;;;;;;3.00;3.00;;;;;-143.90;93.60;74508.63;4938248;28;103050;-73
2023/09/14 07:20:12;;;;;;;;;4.00;4.00;;;;;-143.90;92.46;74508.63;4936742;28;102144;-72
2023/09/14 07:22:39;;;;;;;;;4.33;4.00;;;;;-143.90;92.89;74502.44;4923021;28;104166;-73
2023/09/14 07:25:08;;;;;;;;;5.67;5.67;;;;;-143.90;93.54;74485.91;4919902;28;102098;-72
2023/09/14 07:27:35;;;;;;;;;6.00;5.00;;;;;-143.90;93.21;74487.97;4928210;28;101925;-73
2023/09/14 07:30:02;;;;;;;;;5.00;4.00;;;;;-143.90;93.20;74471.44;4919739;28;101977;-74
2023/09/14 07:32:29;;;;;;;;;4.67;4.67;;;;;-143.90;91.69;74477.63;4923170;28;104270;-73
2023/09/14 07:35:00;;;;;;;;;3.00;3.00;;;;;-143.90;91.52;74469.38;4917881;28;102870;-72
2023/09/14 07:37:27;;;;;;;;;3.00;3.00;;;;;-143.90;92.02;74461.09;4918645;28;103542;-72
2023/09/14 07:39:53;;;;;;;;;3.33;3.00;;;;;-143.90;91.90;74452.84;4928206;28;102291;-73
2023/09/14 07:42:20;;;;;;;;;4.67;3.67;;;;;-143.90;92.22;74448.69;4931965;28;105300;-72
2023/09/14 07:44:46;;;;;;;;;4.00;4.00;;;;;-143.90;90.27;74452.84;4929797;28;102220;-73
2023/09/14 07:47:13;;;;;;;;;5.00;5.00;;;;;-143.90;88.89;74461.09;4923160;28;102031;-72
2023/09/14 07:49:44;;;;;;;;;4.67;4.33;;;;;-143.90;89.60;74467.31;4930341;28;102440;-73
2023/09/14 07:52:10;;;;;;;;;4.67;4.67;;;;;-143.90;88.67;74465.22;4910591;28;103619;-73
2023/09/14 07:54:37;;;;;;;;;3.33;3.33;;;;;-143.90;89.34;74448.69;4925753;28;102022;-73
2023/09/14 07:57:04;;;;;;;;;3.00;3.00;;;;;-143.90;90.24;74448.69;4926622;28;102011;-73
2023/09/14 07:59:30;;;;;;;;;5.00;5.00;;;;;-143.90;90.39;74461.09;4933687;28;104508;-72
2023/09/14 08:01:57;;;;;;;;;4.00;4.00;;;;;-143.90;88.77;74465.22;4922105;28;108237;-72
2023/09/14 08:04:24;;;;;;;;;4.00;4.00;;;;;-143.90;89.23;74465.22;4926811;28;102347;-72
2023/09/14 08:06:51;;;;;;;;;7.00;7.00;;;;;-143.90;87.75;74492.09;4917512;28;102107;-73
2023/09/14 08:09:17;;;;;;;;;6.00;5.00;;;;;-143.90;88.55;74490.03;4917178;28;101900;-73
2023/09/14 08:11:44;;;;;;;;;5.00;5.00;;;;;-143.90;89.24;74485.91;4911764;28;104259;-73
2023/09/14 08:14:20;;;;;;;;;4.00;3.50;;;;;-143.90;88.52;74481.78;2959518;28;10110959;-73
2023/09/14 08:16:47;;;;;;;;;7.67;7.00;;;;;-143.90;87.73;74469.38;4898371;28;102289;-73
2023/09/14 08:19:14;;;;;;;;;4.00;4.00;;;;;-143.90;87.26;74473.50;4916566;28;102028;-73
2023/09/14 08:21:40;;;;;;;;;4.67;4.67;;;;;-143.90;88.12;74456.97;4927432;28;104070;-74
2023/09/14 08:24:07;;;;;;;;;4.00;4.00;;;;;-143.90;87.96;74450.75;4934804;28;102490;-73
2023/09/14 08:26:34;;;;;;;;;5.00;4.67;;;;;-143.90;86.47;74444.56;4926222;28;101934;-72
2023/09/14 08:29:00;;;;;;;;;5.00;5.00;;;;;-143.90;87.50;74444.56;4909489;28;101984;-72
2023/09/14 08:31:27;;;;;;;;;4.00;4.00;;;;;-143.90;86.02;74444.56;4929941;28;108665;-73
2023/09/14 08:33:54;;;;;;;;;4.00;4.00;;;;;-143.90;85.93;74446.63;4931418;28;102147;-74
2023/09/14 08:36:21;;;;;;;;;5.00;5.00;;;;;-143.90;86.06;74452.84;4932858;28;103031;-74
2023/09/14 08:38:48;;;;;;;;;5.00;4.33;;;;;-143.90;86.54;74456.97;4931009;28;102593;-73
2023/09/14 08:41:41;;;;;;;;;3.00;3.00;;;;;-143.90;86.16;74467.31;4921577;28;104198;-73
2023/09/14 08:44:07;;;;;;;;;4.67;4.00;;;;;-143.90;85.76;74467.31;4928997;28;102183;-73
2023/09/14 08:46:35;;;;;;;;;4.33;4.00;;;;;-143.90;85.25;74479.69;4926266;28;102447;-71
2023/09/14 08:49:03;;;;;;;;;5.00;4.00;;;;;-143.90;85.86;74494.16;4939855;28;102464;-72
2023/09/14 08:51:33;;;;;;;;;4.00;4.00;;;;;-143.90;85.72;74510.72;4940381;28;108520;-73
2023/09/14 08:54:00;;;;;;;;;6.33;4.67;;;;;-143.90;84.96;74502.44;4936349;28;102071;-73
2023/09/14 08:56:42;;;;;;;;;3.33;3.33;;;;;-143.90;85.96;74494.16;4918560;28;102375;-73
2023/09/14 08:59:11;;;;;;;;;3.00;3.00;;;;;-143.90;88.07;74487.97;4930727;28;102858;-72
2023/09/14 09:01:38;;;;;;;;;7.00;5.00;;;;;-143.90;88.69;74487.97;4919541;28;104538;-73
2023/09/14 09:04:06;;;;;;;;;4.00;3.00;;;;;-143.90;86.47;74471.44;4920055;28;101932;-73
2023/09/14 09:06:33;;;;;;;;;4.00;3.00;;;;;-143.90;86.54;74469.38;4917433;28;102428;-74
2023/09/14 09:09:02;;;;;;;;;5.00;5.00;;;;;-143.90;85.56;74442.50;4917346;28;102054;-73
2023/09/14 09:11:30;;;;;;;;;4.00;4.00;;;;;-143.90;85.62;74430.09;4923234;28;112453;-72
2023/09/14 09:13:57;;;;;;;;;4.33;4.00;;;;;-143.90;85.85;74430.09;4928736;28;102260;-73
2023/09/14 09:16:26;;;;;;;;;5.00;4.00;;;;;-143.90;85.02;74423.88;4915139;28;102228;-74
2023/09/14 09:19:04;;;;;;;;;3.33;3.33;;;;;-143.90;84.71;74411.50;4928087;28;103085;-72
2023/09/14 09:21:36;;;;;;;;;5.33;4.67;;;;;-143.90;83.40;74413.56;4903754;28;108266;-72
2023/09/14 09:24:07;;;;;;;;;5.00;4.00;;;;;-143.90;82.84;74411.50;4928600;28;102239;-72
2023/09/14 09:26:36;;;;;;;;;7.33;6.33;;;;;-143.90;81.86;74436.28;4925468;28;102848;-72
2023/09/14 09:29:18;;;;;;;;;6.00;5.00;;;;;-143.90;80.97;74438.38;4930294;28;102003;-73
2023/09/14 09:31:47;;;;;;;;;5.00;5.00;;;;;-143.90;82.24;74444.56;4912493;28;108733;-73
2023/09/14 09:34:14;;;;;;;;;4.00;4.00;;;;;-143.90;81.03;74448.69;4920370;28;102221;-74
2023/09/14 09:36:41;;;;;;;;;6.67;4.00;;;;;-143.90;82.65;74459.03;4934193;28;102356;-73
2023/09/14 09:39:11;;;;;;;;;4.33;4.00;;;;;-143.90;81.93;74446.63;4912411;28;102255;-73
2023/09/14 09:41:39;;;;;;;;;4.33;3.67;;;;;-143.90;80.36;74428.03;4927059;28;102817;-74
2023/09/14 09:44:07;;;;;;;;;3.67;3.00;;;;;-143.90;78.23;74419.75;4936366;28;101983;-72
2023/09/14 09:46:35;;;;;;;;;3.00;3.00;;;;;-143.90;76.11;74409.41;4923824;28;102624;-73
2023/09/14 09:49:19;;;;;;;;;3.67;3.67;;;;;-143.90;78.10;74394.94;4913987;28;102067;-74
2023/09/14 09:51:50;;;;;;;;;2.00;2.00;;;;;-143.90;76.07;74394.94;4932508;28;108954;-73
2023/09/14 09:54:23;;;;;;;;;4.33;3.33;;;;;-143.90;77.40;74399.09;4927495;28;102980;-73
2023/09/14 09:56:51;;;;;;;;;3.00;3.00;;;;;-143.90;76.87;74403.22;4917162;28;102332;-73
2023/09/14 09:59:18;;;;;;;;;3.00;3.00;;;;;-143.90;75.15;74411.50;4935235;28;102348;-74
2023/09/14 10:01:47;;;;;;;;;2.00;2.00;;;;;-143.90;76.17;74417.69;4907896;28;103589;-74
2023/09/14 10:04:16;;;;;;;;;2.33;2.33;;;;;-143.90;75.61;74419.75;4926025;28;103858;-73
2023/09/14 10:06:55;;;;;;;;;2.67;2.67;;;;;-143.90;76.79;74421.81;4921768;28;102190;-74
2023/09/14 10:09:24;;;;;;;;;2.33;2.00;;;;;-143.90;75.31;74409.41;4926598;28;102435;-74
2023/09/14 10:12:00;;;;;;;;;2.33;2.33;;;;;-143.90;75.87;74413.56;4912905;28;104461;-74
2023/09/14 10:14:28;;;;;;;;;1.33;1.33;;;;;-143.90;76.23;74419.75;4930237;28;101988;-73
2023/09/14 10:16:59;;;;;;;;;3.00;2.00;;;;;-143.90;77.21;74415.63;4930226;28;102205;-74
2023/09/14 10:19:28;;;;;;;;;2.00;2.00;;;;;-143.90;76.25;74401.16;4919992;28;102480;-73
2023/09/14 10:21:57;;;;;;;;;3.00;3.00;;;;;-143.90;75.49;74394.94;4904247;28;105197;-73
2023/09/14 10:24:26;;;;;;;;;2.00;2.00;;;;;-143.90;75.62;74388.75;4905065;28;102465;-73
2023/09/14 10:26:55;;;;;;;;;3.00;2.67;;;;;-143.90;75.24;74378.41;4906981;28;102043;-73
2023/09/14 10:29:25;;;;;;;;;3.00;3.00;;;;;-143.90;75.96;74361.88;4934200;28;101943;-73
2023/09/14 10:31:56;;;;;;;;;2.00;2.00;;;;;-143.90;74.15;74357.75;4919112;28;103939;-74
2023/09/14 10:34:25;;;;;;;;;1.33;1.33;;;;;-143.90;74.92;74349.47;4907322;28;102233;-74
2023/09/14 10:36:55;;;;;;;;;4.00;3.33;;;;;-143.90;74.40;74345.34;4931278;28;102267;-73
2023/09/14 10:39:23;;;;;;;;;3.33;3.33;;;;;-143.90;73.57;74330.88;4932464;28;102058;-74
2023/09/14 10:41:50;;;;;;;;;2.00;2.00;;;;;-143.90;71.83;74304.00;4929755;28;105083;-74
2023/09/14 10:44:17;;;;;;;;;3.00;3.00;;;;;-143.90;70.92;74297.81;4923297;28;102623;-73
2023/09/14 10:46:46;;;;;;;;;2.33;2.33;;;;;-143.90;71.80;74279.22;4906861;28;102413;-73
2023/09/14 10:49:14;;;;;;;;;3.33;3.00;;;;;-143.90;68.36;74262.66;4916311;28;102583;-73
2023/09/14 10:51:41;;;;;;;;;3.00;3.00;;;;;-143.90;68.61;74237.88;4935403;28;108843;-73
2023/09/14 10:54:08;;;;;;;;;1.33;1.33;;;;;-143.90;67.10;74221.31;4922719;28;102466;-74
2023/09/14 10:56:35;;;;;;;;;3.00;3.00;;;;;-143.90;68.76;74221.31;4922220;28;103218;-73
2023/09/14 10:59:08;;;;;;;;;3.00;3.00;;;;;-143.90;68.51;74221.31;4928108;28;102261;-73
2023/09/14 11:01:47;;;;;;;;;2.67;2.00;;;;;-143.90;68.91;74217.19;4928108;28;103455;-73
2023/09/14 11:04:21;;;;;;;;;1.50;1.50;;;;;-143.90;69.85;74217.19;4921567;28;102275;-75
2023/09/14 11:06:54;;;;;;;;;2.67;2.67;;;;;-143.90;68.55;74213.06;4920130;28;102390;-75
2023/09/14 11:09:24;;;;;;;;;2.00;2.00;;;;;-143.90;67.78;74208.94;4924680;28;103157;-75
2023/09/14 11:11:52;;;;;;;;;1.33;1.33;;;;;-143.90;68.04;74204.78;4916134;28;104023;-74
2023/09/14 11:14:24;;;;;;;;;1.67;1.67;;;;;-143.90;67.92;74198.59;4918134;28;103439;-73